sensor_id;sensor_type;location;lat;lon;timestamp;pressure;altitude;pressure_sealevel;temperature;humidity
42125;BME280;27787;44.594;11.046;2023-08-08T00:00:05;100974.38;;;20.96;43.48
42125;BME280;27787;44.594;11.046;2023-08-08T00:02:50;100974.41;;;20.95;43.27
42125;BME280;27787;44.594;11.046;2023-08-08T00:05:35;100969.91;;;20.97;42.56
42125;BME280;27787;44.594;11.046;2023-08-08T00:08:19;100971.56;;;21.01;42.51
42125;BME280;27787;44.594;11.046;2023-08-08T00:11:03;100968.16;;;20.94;41.52
42125;BME280;27787;44.594;11.046;2023-08-08T00:13:47;100967.44;;;20.89;41.61
42125;BME280;27787;44.594;11.046;2023-08-08T00:16:31;100969.38;;;20.85;41.34
42125;BME280;27787;44.594;11.046;2023-08-08T00:19:16;100975.56;;;20.87;41.18
42125;BME280;27787;44.594;11.046;2023-08-08T00:22:00;100979.00;;;20.91;41.52
42125;BME280;27787;44.594;11.046;2023-08-08T00:24:44;100979.06;;;20.89;41.10
42125;BME280;27787;44.594;11.046;2023-08-08T00:27:28;100979.84;;;20.93;41.33
42125;BME280;27787;44.594;11.046;2023-08-08T00:30:13;100975.63;;;20.86;41.80
42125;BME280;27787;44.594;11.046;2023-08-08T00:32:57;100977.41;;;20.85;41.55
42125;BME280;27787;44.594;11.046;2023-08-08T00:35:42;100974.69;;;20.87;40.94
42125;BME280;27787;44.594;11.046;2023-08-08T00:38:26;100988.28;;;20.81;42.62
42125;BME280;27787;44.594;11.046;2023-08-08T00:41:11;100988.03;;;20.60;44.08
42125;BME280;27787;44.594;11.046;2023-08-08T00:43:55;100981.47;;;20.40;44.77
42125;BME280;27787;44.594;11.046;2023-08-08T00:46:40;100980.97;;;20.25;44.63
42125;BME280;27787;44.594;11.046;2023-08-08T00:49:25;100989.34;;;20.15;44.90
42125;BME280;27787;44.594;11.046;2023-08-08T00:52:10;100984.25;;;20.04;43.57
42125;BME280;27787;44.594;11.046;2023-08-08T00:54:54;100981.69;;;20.01;43.37
42125;BME280;27787;44.594;11.046;2023-08-08T00:57:40;100985.28;;;20.00;43.65
42125;BME280;27787;44.594;11.046;2023-08-08T01:00:24;100982.75;;;19.95;44.22
42125;BME280;27787;44.594;11.046;2023-08-08T01:03:09;100985.50;;;19.92;44.89
42125;BME280;27787;44.594;11.046;2023-08-08T01:06:05;100991.03;;;19.86;45.70
42125;BME280;27787;44.594;11.046;2023-08-08T01:08:57;100989.50;;;19.76;46.52
42125;BME280;27787;44.594;11.046;2023-08-08T01:11:43;101003.19;;;19.65;46.88
42125;BME280;27787;44.594;11.046;2023-08-08T01:14:32;100989.13;;;19.57;47.07
42125;BME280;27787;44.594;11.046;2023-08-08T01:17:19;101005.38;;;19.48;47.52
42125;BME280;27787;44.594;11.046;2023-08-08T01:20:06;101000.09;;;19.47;47.88
42125;BME280;27787;44.594;11.046;2023-08-08T01:22:56;101010.84;;;19.45;48.61
42125;BME280;27787;44.594;11.046;2023-08-08T01:25:46;100999.34;;;19.41;48.47
42125;BME280;27787;44.594;11.046;2023-08-08T01:28:31;100998.50;;;19.38;48.65
42125;BME280;27787;44.594;11.046;2023-08-08T01:31:15;100999.50;;;19.34;49.20
42125;BME280;27787;44.594;11.046;2023-08-08T01:33:59;101002.09;;;19.37;48.96
42125;BME280;27787;44.594;11.046;2023-08-08T01:39:40;101000.97;;;19.47;47.40
42125;BME280;27787;44.594;11.046;2023-08-08T01:42:24;100998.19;;;19.50;46.63
42125;BME280;27787;44.594;11.046;2023-08-08T01:45:09;101000.69;;;19.59;46.57
42125;BME280;27787;44.594;11.046;2023-08-08T01:47:53;100992.66;;;19.59;47.18
42125;BME280;27787;44.594;11.046;2023-08-08T01:50:38;100991.75;;;19.59;47.38
42125;BME280;27787;44.594;11.046;2023-08-08T01:53:23;100983.72;;;19.59;47.16
42125;BME280;27787;44.594;11.046;2023-08-08T01:56:07;100991.91;;;19.51;47.45
42125;BME280;27787;44.594;11.046;2023-08-08T01:58:52;101002.03;;;19.40;47.35
42125;BME280;27787;44.594;11.046;2023-08-08T02:01:36;101008.38;;;19.36;48.19
42125;BME280;27787;44.594;11.046;2023-08-08T02:04:20;101014.69;;;19.33;48.80
42125;BME280;27787;44.594;11.046;2023-08-08T02:07:05;101008.59;;;19.28;48.81
42125;BME280;27787;44.594;11.046;2023-08-08T02:09:49;101000.59;;;19.25;49.17
42125;BME280;27787;44.594;11.046;2023-08-08T02:12:35;101001.44;;;19.29;49.08
42125;BME280;27787;44.594;11.046;2023-08-08T02:15:19;101010.19;;;19.35;49.17
42125;BME280;27787;44.594;11.046;2023-08-08T02:18:04;101011.19;;;19.31;49.67
42125;BME280;27787;44.594;11.046;2023-08-08T02:20:48;101012.19;;;19.26;50.40
42125;BME280;27787;44.594;11.046;2023-08-08T02:23:32;101011.47;;;19.19;50.82
42125;BME280;27787;44.594;11.046;2023-08-08T02:26:16;101004.50;;;19.12;51.71
42125;BME280;27787;44.594;11.046;2023-08-08T02:29:01;101004.63;;;19.07;51.99
42125;BME280;27787;44.594;11.046;2023-08-08T02:31:45;101011.81;;;19.05;51.63
42125;BME280;27787;44.594;11.046;2023-08-08T02:34:29;101010.13;;;19.00;52.06
42125;BME280;27787;44.594;11.046;2023-08-08T02:37:14;101017.25;;;19.02;52.13
42125;BME280;27787;44.594;11.046;2023-08-08T02:39:58;101019.00;;;19.03;51.51
42125;BME280;27787;44.594;11.046;2023-08-08T02:42:43;101015.47;;;19.01;51.66
42125;BME280;27787;44.594;11.046;2023-08-08T02:45:27;101014.69;;;18.96;52.72
42125;BME280;27787;44.594;11.046;2023-08-08T02:48:10;101018.34;;;18.92;52.50
42125;BME280;27787;44.594;11.046;2023-08-08T02:50:55;101021.00;;;18.94;51.64
42125;BME280;27787;44.594;11.046;2023-08-08T02:53:44;101022.75;;;18.95;51.36
42125;BME280;27787;44.594;11.046;2023-08-08T02:56:28;101029.69;;;19.03;49.92
42125;BME280;27787;44.594;11.046;2023-08-08T02:59:12;101024.28;;;19.06;48.41
42125;BME280;27787;44.594;11.046;2023-08-08T03:01:57;101028.84;;;19.01;48.32
42125;BME280;27787;44.594;11.046;2023-08-08T03:04:41;101036.09;;;18.96;48.56
42125;BME280;27787;44.594;11.046;2023-08-08T03:07:26;101038.06;;;18.88;48.47
42125;BME280;27787;44.594;11.046;2023-08-08T03:10:10;101043.28;;;18.94;48.81
42125;BME280;27787;44.594;11.046;2023-08-08T03:12:55;101040.41;;;19.03;48.87
42125;BME280;27787;44.594;11.046;2023-08-08T03:15:40;101040.41;;;19.03;49.21
42125;BME280;27787;44.594;11.046;2023-08-08T03:18:25;101039.84;;;18.89;51.11
42125;BME280;27787;44.594;11.046;2023-08-08T03:21:12;101040.56;;;18.54;53.38
42125;BME280;27787;44.594;11.046;2023-08-08T03:23:57;101031.09;;;18.38;54.78
42125;BME280;27787;44.594;11.046;2023-08-08T03:26:42;101031.25;;;18.30;54.48
42125;BME280;27787;44.594;11.046;2023-08-08T03:29:26;101034.09;;;18.21;55.37
42125;BME280;27787;44.594;11.046;2023-08-08T03:32:12;101033.41;;;18.10;56.08
42125;BME280;27787;44.594;11.046;2023-08-08T03:34:56;101037.97;;;18.05;56.37
42125;BME280;27787;44.594;11.046;2023-08-08T03:37:40;101034.56;;;17.96;56.36
42125;BME280;27787;44.594;11.046;2023-08-08T03:40:24;101037.28;;;17.93;56.77
42125;BME280;27787;44.594;11.046;2023-08-08T03:43:09;101035.56;;;17.91;57.64
42125;BME280;27787;44.594;11.046;2023-08-08T03:45:54;101035.63;;;17.88;58.07
42125;BME280;27787;44.594;11.046;2023-08-08T03:48:39;101031.25;;;17.82;58.57
42125;BME280;27787;44.594;11.046;2023-08-08T03:51:23;101033.16;;;17.77;58.79
42125;BME280;27787;44.594;11.046;2023-08-08T03:54:08;101031.34;;;17.78;58.69
42125;BME280;27787;44.594;11.046;2023-08-08T03:56:52;101039.25;;;17.84;58.70
42125;BME280;27787;44.594;11.046;2023-08-08T03:59:38;101035.53;;;17.92;58.73
42125;BME280;27787;44.594;11.046;2023-08-08T04:02:24;101035.66;;;17.86;59.49
42125;BME280;27787;44.594;11.046;2023-08-08T04:05:09;101028.63;;;17.81;60.33
42125;BME280;27787;44.594;11.046;2023-08-08T04:07:53;101037.63;;;17.75;60.97
42125;BME280;27787;44.594;11.046;2023-08-08T04:10:38;101035.06;;;17.69;60.95
42125;BME280;27787;44.594;11.046;2023-08-08T04:13:22;101037.78;;;17.64;60.68
42125;BME280;27787;44.594;11.046;2023-08-08T04:16:07;101043.97;;;17.66;59.20
42125;BME280;27787;44.594;11.046;2023-08-08T04:18:51;101047.56;;;17.65;60.46
42125;BME280;27787;44.594;11.046;2023-08-08T04:21:35;101045.81;;;17.63;60.92
42125;BME280;27787;44.594;11.046;2023-08-08T04:24:19;101039.66;;;17.59;61.05
42125;BME280;27787;44.594;11.046;2023-08-08T04:27:04;101040.41;;;17.67;60.44
42125;BME280;27787;44.594;11.046;2023-08-08T04:29:48;101037.47;;;17.83;58.81
42125;BME280;27787;44.594;11.046;2023-08-08T04:32:32;101039.84;;;18.01;56.76
42125;BME280;27787;44.594;11.046;2023-08-08T04:35:17;101037.78;;;18.15;55.90
42125;BME280;27787;44.594;11.046;2023-08-08T04:38:01;101041.38;;;18.14;55.96
42125;BME280;27787;44.594;11.046;2023-08-08T04:40:46;101034.44;;;18.04;56.58
42125;BME280;27787;44.594;11.046;2023-08-08T04:43:29;101033.63;;;18.01;56.14
42125;BME280;27787;44.594;11.046;2023-08-08T04:46:14;101036.22;;;18.04;53.66
42125;BME280;27787;44.594;11.046;2023-08-08T04:48:58;101035.44;;;17.98;53.09
42125;BME280;27787;44.594;11.046;2023-08-08T04:51:42;101029.22;;;17.98;52.70
42125;BME280;27787;44.594;11.046;2023-08-08T04:54:26;101039.91;;;17.96;52.34
42125;BME280;27787;44.594;11.046;2023-08-08T04:57:10;101039.06;;;17.94;52.74
42125;BME280;27787;44.594;11.046;2023-08-08T04:59:54;101041.00;;;17.86;53.98
42125;BME280;27787;44.594;11.046;2023-08-08T05:02:38;101052.72;;;17.78;54.51
42125;BME280;27787;44.594;11.046;2023-08-08T05:05:24;101058.19;;;17.70;54.46
42125;BME280;27787;44.594;11.046;2023-08-08T05:08:08;101066.31;;;17.62;55.11
42125;BME280;27787;44.594;11.046;2023-08-08T05:10:53;101071.72;;;17.58;54.85
42125;BME280;27787;44.594;11.046;2023-08-08T05:13:37;101079.63;;;17.64;55.13
42125;BME280;27787;44.594;11.046;2023-08-08T05:16:21;101076.72;;;17.79;54.85
42125;BME280;27787;44.594;11.046;2023-08-08T05:19:06;101077.41;;;17.90;54.85
42125;BME280;27787;44.594;11.046;2023-08-08T05:21:51;101078.97;;;18.04;55.28
42125;BME280;27787;44.594;11.046;2023-08-08T05:24:35;101082.22;;;18.19;55.76
42125;BME280;27787;44.594;11.046;2023-08-08T05:27:20;101081.16;;;18.30;55.91
42125;BME280;27787;44.594;11.046;2023-08-08T05:30:04;101074.78;;;18.37;55.86
42125;BME280;27787;44.594;11.046;2023-08-08T05:32:49;101068.56;;;18.36;55.61
42125;BME280;27787;44.594;11.046;2023-08-08T05:35:33;101072.16;;;18.34;56.09
42125;BME280;27787;44.594;11.046;2023-08-08T05:38:17;101075.72;;;18.33;56.10
42125;BME280;27787;44.594;11.046;2023-08-08T05:41:01;101076.63;;;18.33;56.40
42125;BME280;27787;44.594;11.046;2023-08-08T05:43:45;101066.84;;;18.32;56.27
42125;BME280;27787;44.594;11.046;2023-08-08T05:46:29;101077.34;;;18.41;57.25
42125;BME280;27787;44.594;11.046;2023-08-08T05:49:13;101080.88;;;18.43;57.89
42125;BME280;27787;44.594;11.046;2023-08-08T05:51:57;101088.03;;;18.41;57.58
42125;BME280;27787;44.594;11.046;2023-08-08T05:54:41;101091.59;;;18.42;57.43
42125;BME280;27787;44.594;11.046;2023-08-08T05:57:26;101101.28;;;18.47;56.97
42125;BME280;27787;44.594;11.046;2023-08-08T06:00:12;101106.50;;;18.55;55.50
42125;BME280;27787;44.594;11.046;2023-08-08T06:03:00;101112.50;;;18.68;54.18
42125;BME280;27787;44.594;11.046;2023-08-08T06:05:44;101119.41;;;18.79;54.49
42125;BME280;27787;44.594;11.046;2023-08-08T06:08:28;101126.25;;;18.93;54.74
42125;BME280;27787;44.594;11.046;2023-08-08T06:11:13;101127.94;;;18.97;53.79
42125;BME280;27787;44.594;11.046;2023-08-08T06:13:57;101128.09;;;18.91;52.32
42125;BME280;27787;44.594;11.046;2023-08-08T06:16:41;101128.13;;;18.88;52.43
42125;BME280;27787;44.594;11.046;2023-08-08T06:19:25;101136.00;;;18.95;51.65
42125;BME280;27787;44.594;11.046;2023-08-08T06:22:11;101139.34;;;19.06;51.88
42125;BME280;27787;44.594;11.046;2023-08-08T06:24:56;101136.38;;;19.19;52.14
42125;BME280;27787;44.594;11.046;2023-08-08T06:27:40;101143.59;;;19.17;50.62
42125;BME280;27787;44.594;11.046;2023-08-08T06:30:25;101145.31;;;19.19;50.38
42125;BME280;27787;44.594;11.046;2023-08-08T06:33:10;101142.53;;;19.22;49.68
42125;BME280;27787;44.594;11.046;2023-08-08T06:35:55;101150.41;;;19.30;49.42
42125;BME280;27787;44.594;11.046;2023-08-08T06:38:40;101142.16;;;19.40;48.88
42125;BME280;27787;44.594;11.046;2023-08-08T06:41:24;101153.34;;;19.59;48.52
42125;BME280;27787;44.594;11.046;2023-08-08T06:44:08;101150.19;;;19.78;47.99
42125;BME280;27787;44.594;11.046;2023-08-08T06:46:52;101142.66;;;19.95;47.89
42125;BME280;27787;44.594;11.046;2023-08-08T06:49:37;101149.41;;;20.10;47.56
42125;BME280;27787;44.594;11.046;2023-08-08T06:52:22;101149.38;;;20.11;47.88
42125;BME280;27787;44.594;11.046;2023-08-08T06:55:07;101160.31;;;20.02;47.45
42125;BME280;27787;44.594;11.046;2023-08-08T06:57:51;101163.25;;;19.91;47.39
42125;BME280;27787;44.594;11.046;2023-08-08T07:00:35;101168.88;;;19.82;48.39
42125;BME280;27787;44.594;11.046;2023-08-08T07:03:20;101170.88;;;19.72;49.25
42125;BME280;27787;44.594;11.046;2023-08-08T07:06:04;101167.44;;;19.66;50.37
42125;BME280;27787;44.594;11.046;2023-08-08T07:08:48;101170.13;;;19.66;51.41
42125;BME280;27787;44.594;11.046;2023-08-08T07:11:32;101172.75;;;19.69;52.13
42125;BME280;27787;44.594;11.046;2023-08-08T07:14:16;101170.13;;;19.66;52.92
42125;BME280;27787;44.594;11.046;2023-08-08T07:17:01;101174.53;;;19.70;53.28
42125;BME280;27787;44.594;11.046;2023-08-08T07:19:47;101169.91;;;19.75;52.57
42125;BME280;27787;44.594;11.046;2023-08-08T07:22:32;101172.38;;;19.84;52.20
42125;BME280;27787;44.594;11.046;2023-08-08T07:25:17;101176.78;;;19.87;50.14
42125;BME280;27787;44.594;11.046;2023-08-08T07:28:01;101173.97;;;19.91;48.17
42125;BME280;27787;44.594;11.046;2023-08-08T07:30:45;101170.38;;;19.94;47.32
42125;BME280;27787;44.594;11.046;2023-08-08T07:33:29;101173.06;;;19.94;45.95
42125;BME280;27787;44.594;11.046;2023-08-08T07:36:14;101159.56;;;19.97;45.72
42125;BME280;27787;44.594;11.046;2023-08-08T07:38:58;101154.97;;;20.02;43.89
42125;BME280;27787;44.594;11.046;2023-08-08T07:41:44;101160.19;;;20.08;43.13
42125;BME280;27787;44.594;11.046;2023-08-08T07:44:28;101145.84;;;20.09;43.65
42125;BME280;27787;44.594;11.046;2023-08-08T07:47:12;101155.63;;;20.12;44.29
42125;BME280;27787;44.594;11.046;2023-08-08T07:49:56;101159.88;;;20.20;44.89
42125;BME280;27787;44.594;11.046;2023-08-08T07:52:41;101157.84;;;20.28;44.79
42125;BME280;27787;44.594;11.046;2023-08-08T07:55:25;101157.66;;;20.36;45.82
42125;BME280;27787;44.594;11.046;2023-08-08T07:58:09;101149.47;;;20.42;46.32
42125;BME280;27787;44.594;11.046;2023-08-08T08:00:53;101148.34;;;20.51;45.76
42125;BME280;27787;44.594;11.046;2023-08-08T08:03:37;101152.66;;;20.56;45.73
42125;BME280;27787;44.594;11.046;2023-08-08T08:06:21;101145.38;;;20.61;45.86
42125;BME280;27787;44.594;11.046;2023-08-08T08:09:05;101148.78;;;20.67;45.27
42125;BME280;27787;44.594;11.046;2023-08-08T08:11:50;101140.69;;;20.68;45.39
42125;BME280;27787;44.594;11.046;2023-08-08T08:14:34;101150.44;;;20.72;45.26
42125;BME280;27787;44.594;11.046;2023-08-08T08:17:18;101148.44;;;20.79;45.57
42125;BME280;27787;44.594;11.046;2023-08-08T08:20:02;101152.63;;;20.89;45.81
42125;BME280;27787;44.594;11.046;2023-08-08T08:22:54;101155.09;;;20.97;45.51
42125;BME280;27787;44.594;11.046;2023-08-08T08:25:38;101160.31;;;21.01;45.66
42125;BME280;27787;44.594;11.046;2023-08-08T08:28:22;101152.13;;;21.06;45.25
42125;BME280;27787;44.594;11.046;2023-08-08T08:31:06;101155.56;;;21.11;45.17
42125;BME280;27787;44.594;11.046;2023-08-08T08:33:52;101154.66;;;21.12;45.23
42125;BME280;27787;44.594;11.046;2023-08-08T08:36:39;101153.63;;;21.16;45.42
42125;BME280;27787;44.594;11.046;2023-08-08T08:39:23;101149.84;;;21.21;45.62
42125;BME280;27787;44.594;11.046;2023-08-08T08:42:08;101150.44;;;21.33;45.80
42125;BME280;27787;44.594;11.046;2023-08-08T08:44:57;101150.06;;;21.45;45.65
42125;BME280;27787;44.594;11.046;2023-08-08T08:47:43;101150.56;;;21.58;45.78
42125;BME280;27787;44.594;11.046;2023-08-08T08:50:32;101151.09;;;21.69;45.78
42125;BME280;27787;44.594;11.046;2023-08-08T08:53:17;101149.00;;;21.78;45.80
42125;BME280;27787;44.594;11.046;2023-08-08T08:56:02;101152.41;;;21.84;45.13
42125;BME280;27787;44.594;11.046;2023-08-08T08:58:47;101152.50;;;21.81;44.75
42125;BME280;27787;44.594;11.046;2023-08-08T09:01:31;101149.13;;;21.74;44.06
42125;BME280;27787;44.594;11.046;2023-08-08T09:04:18;101151.91;;;21.71;44.18
42125;BME280;27787;44.594;11.046;2023-08-08T09:07:05;101153.69;;;21.72;44.38
42125;BME280;27787;44.594;11.046;2023-08-08T09:09:50;101155.34;;;21.76;44.26
42125;BME280;27787;44.594;11.046;2023-08-08T09:12:34;101158.75;;;21.81;42.44
42125;BME280;27787;44.594;11.046;2023-08-08T09:15:20;101160.34;;;21.88;41.11
42125;BME280;27787;44.594;11.046;2023-08-08T09:18:07;101154.97;;;21.88;39.61
42125;BME280;27787;44.594;11.046;2023-08-08T09:20:51;101147.66;;;21.92;40.18
42125;BME280;27787;44.594;11.046;2023-08-08T09:23:37;101143.97;;;21.94;39.06
42125;BME280;27787;44.594;11.046;2023-08-08T09:26:22;101149.41;;;21.93;36.82
42125;BME280;27787;44.594;11.046;2023-08-08T09:29:08;101136.91;;;21.92;36.30
42125;BME280;27787;44.594;11.046;2023-08-08T09:31:52;101140.31;;;21.97;37.59
42125;BME280;27787;44.594;11.046;2023-08-08T09:34:37;101134.75;;;22.03;38.17
42125;BME280;27787;44.594;11.046;2023-08-08T09:37:21;101133.56;;;22.12;39.28
42125;BME280;27787;44.594;11.046;2023-08-08T09:40:06;101129.63;;;22.22;40.72
42125;BME280;27787;44.594;11.046;2023-08-08T09:42:52;101126.75;;;22.28;40.74
42125;BME280;27787;44.594;11.046;2023-08-08T09:45:40;101121.13;;;22.34;40.66
42125;BME280;27787;44.594;11.046;2023-08-08T09:48:35;101127.22;;;22.39;40.30
42125;BME280;27787;44.594;11.046;2023-08-08T09:51:21;101118.13;;;22.43;40.51
42125;BME280;27787;44.594;11.046;2023-08-08T09:54:05;101117.81;;;22.51;40.97
42125;BME280;27787;44.594;11.046;2023-08-08T09:56:51;101122.19;;;22.55;41.06
42125;BME280;27787;44.594;11.046;2023-08-08T09:59:35;101119.25;;;22.61;41.27
42125;BME280;27787;44.594;11.046;2023-08-08T10:02:19;101120.88;;;22.65;41.19
42125;BME280;27787;44.594;11.046;2023-08-08T10:05:07;101109.03;;;22.71;40.76
42125;BME280;27787;44.594;11.046;2023-08-08T10:07:53;101106.97;;;22.77;40.17
42125;BME280;27787;44.594;11.046;2023-08-08T10:10:38;101113.00;;;22.85;39.70
42125;BME280;27787;44.594;11.046;2023-08-08T10:13:24;101108.25;;;22.92;40.13
42125;BME280;27787;44.594;11.046;2023-08-08T10:16:09;101110.78;;;22.97;40.29
42125;BME280;27787;44.594;11.046;2023-08-08T10:19:02;101115.03;;;23.02;39.69
42125;BME280;27787;44.594;11.046;2023-08-08T10:21:46;101099.75;;;23.03;39.13
42125;BME280;27787;44.594;11.046;2023-08-08T10:27:32;101109.28;;;23.11;38.52
42125;BME280;27787;44.594;11.046;2023-08-08T10:30:16;101096.78;;;23.10;38.15
42125;BME280;27787;44.594;11.046;2023-08-08T10:33:01;101101.97;;;23.15;38.40
42125;BME280;27787;44.594;11.046;2023-08-08T10:35:57;101099.09;;;23.19;38.39
42125;BME280;27787;44.594;11.046;2023-08-08T10:38:46;101090.91;;;23.22;38.85
42125;BME280;27787;44.594;11.046;2023-08-08T10:41:32;101088.06;;;23.25;38.97
42125;BME280;27787;44.594;11.046;2023-08-08T10:44:25;101090.63;;;23.29;38.44
42125;BME280;27787;44.594;11.046;2023-08-08T10:47:11;101082.56;;;23.29;38.13
42125;BME280;27787;44.594;11.046;2023-08-08T10:50:03;101086.97;;;23.31;38.30
42125;BME280;27787;44.594;11.046;2023-08-08T10:55:37;101082.84;;;23.44;38.05
42125;BME280;27787;44.594;11.046;2023-08-08T10:58:22;101079.88;;;23.50;38.19
42125;BME280;27787;44.594;11.046;2023-08-08T11:01:07;101080.63;;;23.54;38.41
42125;BME280;27787;44.594;11.046;2023-08-08T11:03:52;101074.16;;;23.60;39.05
42125;BME280;27787;44.594;11.046;2023-08-08T11:06:38;101074.88;;;23.63;38.53
42125;BME280;27787;44.594;11.046;2023-08-08T11:09:23;101073.81;;;23.67;37.54
42125;BME280;27787;44.594;11.046;2023-08-08T11:12:13;101069.13;;;23.72;37.07
42125;BME280;27787;44.594;11.046;2023-08-08T11:14:58;101074.16;;;23.80;36.54
42125;BME280;27787;44.594;11.046;2023-08-08T11:17:42;101066.00;;;23.81;36.54
42125;BME280;27787;44.594;11.046;2023-08-08T11:20:34;101063.22;;;23.85;36.39
42125;BME280;27787;44.594;11.046;2023-08-08T11:23:18;101059.44;;;23.89;36.34
42125;BME280;27787;44.594;11.046;2023-08-08T11:26:04;101058.34;;;23.93;36.78
42125;BME280;27787;44.594;11.046;2023-08-08T11:28:50;101049.31;;;23.94;37.09
42125;BME280;27787;44.594;11.046;2023-08-08T11:31:35;101048.25;;;23.98;36.61
42125;BME280;27787;44.594;11.046;2023-08-08T11:34:20;101040.16;;;23.98;36.60
42125;BME280;27787;44.594;11.046;2023-08-08T11:37:05;101044.59;;;23.99;36.51
42125;BME280;27787;44.594;11.046;2023-08-08T11:39:49;101036.63;;;23.96;35.66
42125;BME280;27787;44.594;11.046;2023-08-08T11:42:34;101031.13;;;23.99;33.92
42125;BME280;27787;44.594;11.046;2023-08-08T11:45:19;101028.94;;;24.07;34.10
42125;BME280;27787;44.594;11.046;2023-08-08T11:48:04;101022.41;;;24.12;34.77
42125;BME280;27787;44.594;11.046;2023-08-08T11:50:48;101027.75;;;24.14;35.08
42125;BME280;27787;44.594;11.046;2023-08-08T11:53:33;101023.94;;;24.18;35.19
42125;BME280;27787;44.594;11.046;2023-08-08T11:56:19;101018.41;;;24.21;34.86
42125;BME280;27787;44.594;11.046;2023-08-08T11:59:04;101013.56;;;24.29;34.66
42125;BME280;27787;44.594;11.046;2023-08-08T12:01:49;101012.38;;;24.36;34.04
42125;BME280;27787;44.594;11.046;2023-08-08T12:04:33;101013.50;;;24.51;32.16
42125;BME280;27787;44.594;11.046;2023-08-08T12:07:17;101015.00;;;24.57;32.95
42125;BME280;27787;44.594;11.046;2023-08-08T12:10:03;101010.00;;;24.68;31.60
42125;BME280;27787;44.594;11.046;2023-08-08T12:12:56;101004.31;;;24.74;32.52
42125;BME280;27787;44.594;11.046;2023-08-08T12:15:42;101007.03;;;24.74;33.15
42125;BME280;27787;44.594;11.046;2023-08-08T12:18:26;100998.75;;;24.77;31.36
42125;BME280;27787;44.594;11.046;2023-08-08T12:21:11;100996.16;;;24.76;31.28
42125;BME280;27787;44.594;11.046;2023-08-08T12:23:55;100984.47;;;24.75;28.14
42125;BME280;27787;44.594;11.046;2023-08-08T12:26:39;100987.97;;;24.77;29.48
42125;BME280;27787;44.594;11.046;2023-08-08T12:29:23;100986.94;;;24.80;30.69
42125;BME280;27787;44.594;11.046;2023-08-08T12:32:07;100981.53;;;24.80;30.78
42125;BME280;27787;44.594;11.046;2023-08-08T12:34:52;100981.03;;;24.90;30.65
42125;BME280;27787;44.594;11.046;2023-08-08T12:37:36;100971.25;;;25.07;30.27
42125;BME280;27787;44.594;11.046;2023-08-08T12:40:20;100967.28;;;25.14;30.07
42125;BME280;27787;44.594;11.046;2023-08-08T12:43:04;100974.44;;;25.15;29.90
42125;BME280;27787;44.594;11.046;2023-08-08T12:45:49;100967.13;;;25.17;30.78
42125;BME280;27787;44.594;11.046;2023-08-08T12:48:33;100966.09;;;25.19;31.25
42125;BME280;27787;44.594;11.046;2023-08-08T12:51:18;100960.25;;;25.28;30.57
42125;BME280;27787;44.594;11.046;2023-08-08T12:54:02;100963.56;;;25.34;30.76
42125;BME280;27787;44.594;11.046;2023-08-08T12:56:47;100966.91;;;25.39;29.78
42125;BME280;27787;44.594;11.046;2023-08-08T12:59:31;100962.94;;;25.46;29.82
42125;BME280;27787;44.594;11.046;2023-08-08T13:02:16;100948.47;;;25.47;29.70
42125;BME280;27787;44.594;11.046;2023-08-08T13:05:00;100954.75;;;25.47;30.10
42125;BME280;27787;44.594;11.046;2023-08-08T13:07:45;100953.81;;;25.48;29.62
42125;BME280;27787;44.594;11.046;2023-08-08T13:10:29;100951.75;;;25.53;29.85
42125;BME280;27787;44.594;11.046;2023-08-08T13:13:15;100954.28;;;25.56;29.50
42125;BME280;27787;44.594;11.046;2023-08-08T13:15:59;100953.25;;;25.59;29.34
42125;BME280;27787;44.594;11.046;2023-08-08T13:18:44;100950.16;;;25.67;29.78
42125;BME280;27787;44.594;11.046;2023-08-08T13:21:28;100944.44;;;25.73;30.31
42125;BME280;27787;44.594;11.046;2023-08-08T13:24:13;100944.16;;;25.79;30.08
42125;BME280;27787;44.594;11.046;2023-08-08T13:26:57;100945.38;;;25.89;29.42
42125;BME280;27787;44.594;11.046;2023-08-08T13:29:42;100943.06;;;25.99;29.31
42125;BME280;27787;44.594;11.046;2023-08-08T13:32:26;100939.44;;;26.15;28.65
42125;BME280;27787;44.594;11.046;2023-08-08T13:35:10;100929.06;;;26.24;29.00
42125;BME280;27787;44.594;11.046;2023-08-08T13:37:54;100922.94;;;26.37;28.04
42125;BME280;27787;44.594;11.046;2023-08-08T13:40:38;100923.38;;;26.45;28.83
42125;BME280;27787;44.594;11.046;2023-08-08T13:43:23;100924.53;;;26.57;28.44
42125;BME280;27787;44.594;11.046;2023-08-08T13:46:08;100917.47;;;26.70;28.90
42125;BME280;27787;44.594;11.046;2023-08-08T13:48:53;100916.13;;;26.78;28.75
42125;BME280;27787;44.594;11.046;2023-08-08T13:51:38;100920.31;;;27.15;26.38
42125;BME280;27787;44.594;11.046;2023-08-08T13:54:22;100908.69;;;27.43;25.93
42125;BME280;27787;44.594;11.046;2023-08-08T13:57:06;100910.56;;;27.56;26.44
42125;BME280;27787;44.594;11.046;2023-08-08T13:59:50;100909.06;;;27.67;26.77
42125;BME280;27787;44.594;11.046;2023-08-08T14:02:34;100905.91;;;27.74;27.15
42125;BME280;27787;44.594;11.046;2023-08-08T14:05:19;100905.09;;;27.86;26.31
42125;BME280;27787;44.594;11.046;2023-08-08T14:08:03;100897.16;;;27.98;26.66
42125;BME280;27787;44.594;11.046;2023-08-08T14:10:47;100898.13;;;28.11;27.07
42125;BME280;27787;44.594;11.046;2023-08-08T14:13:31;100894.97;;;28.33;26.50
42125;BME280;27787;44.594;11.046;2023-08-08T14:16:15;100889.84;;;28.28;27.02
42125;BME280;27787;44.594;11.046;2023-08-08T14:19:00;100885.41;;;28.26;27.02